sensor_id;sensor_type;location;lat;lon;timestamp;temperature;humidity
12769;DHT22;6448;48.916;8.990;2023-08-12T00:00:18;27.60;48.00
12769;DHT22;6448;48.916;8.990;2023-08-12T00:01:21;27.60;48.10
12769;DHT22;6448;48.916;8.990;2023-08-12T00:02:22;27.60;48.10
12769;DHT22;6448;48.916;8.990;2023-08-12T00:03:25;27.60;48.10
12769;DHT22;6448;48.916;8.990;2023-08-12T00:04:26;27.60;48.20
12769;DHT22;6448;48.916;8.990;2023-08-12T00:05:27;27.50;48.10
12769;DHT22;6448;48.916;8.990;2023-08-12T00:06:28;27.60;48.20
12769;DHT22;6448;48.916;8.990;2023-08-12T00:07:30;27.50;48.10
12769;DHT22;6448;48.916;8.990;2023-08-12T00:08:31;27.50;48.20
12769;DHT22;6448;48.916;8.990;2023-08-12T00:09:32;27.50;48.20
12769;DHT22;6448;48.916;8.990;2023-08-12T00:10:34;27.60;48.30
12769;DHT22;6448;48.916;8.990;2023-08-12T00:11:35;27.50;48.20
12769;DHT22;6448;48.916;8.990;2023-08-12T00:12:37;27.50;48.30
12769;DHT22;6448;48.916;8.990;2023-08-12T00:13:38;27.50;48.30
12769;DHT22;6448;48.916;8.990;2023-08-12T00:14:40;27.50;48.30
12769;DHT22;6448;48.916;8.990;2023-08-12T00:15:41;27.50;48.30
12769;DHT22;6448;48.916;8.990;2023-08-12T00:16:43;27.40;48.30
12769;DHT22;6448;48.916;8.990;2023-08-12T00:17:44;27.50;48.30
12769;DHT22;6448;48.916;8.990;2023-08-12T00:18:47;27.40;48.30
12769;DHT22;6448;48.916;8.990;2023-08-12T00:19:48;27.40;48.40
12769;DHT22;6448;48.916;8.990;2023-08-12T00:20:50;27.40;48.40
12769;DHT22;6448;48.916;8.990;2023-08-12T00:21:51;27.40;48.40
12769;DHT22;6448;48.916;8.990;2023-08-12T00:22:53;27.40;48.40
12769;DHT22;6448;48.916;8.990;2023-08-12T00:23:54;27.40;48.40
12769;DHT22;6448;48.916;8.990;2023-08-12T00:24:56;27.40;48.40
12769;DHT22;6448;48.916;8.990;2023-08-12T00:25:58;27.40;48.40
12769;DHT22;6448;48.916;8.990;2023-08-12T00:27:00;27.40;48.40
12769;DHT22;6448;48.916;8.990;2023-08-12T00:28:01;27.40;48.40
12769;DHT22;6448;48.916;8.990;2023-08-12T00:29:04;27.40;48.50
12769;DHT22;6448;48.916;8.990;2023-08-12T00:30:06;27.30;48.40
12769;DHT22;6448;48.916;8.990;2023-08-12T00:31:09;27.30;48.40
12769;DHT22;6448;48.916;8.990;2023-08-12T00:32:10;27.30;48.40
12769;DHT22;6448;48.916;8.990;2023-08-12T00:33:11;27.30;48.40
12769;DHT22;6448;48.916;8.990;2023-08-12T00:34:14;27.30;48.40
12769;DHT22;6448;48.916;8.990;2023-08-12T00:35:16;27.30;48.40
12769;DHT22;6448;48.916;8.990;2023-08-12T00:36:16;27.30;48.40
12769;DHT22;6448;48.916;8.990;2023-08-12T00:37:18;27.30;48.40
12769;DHT22;6448;48.916;8.990;2023-08-12T00:38:19;27.30;49.00
12769;DHT22;6448;48.916;8.990;2023-08-12T00:39:21;27.30;48.50
12769;DHT22;6448;48.916;8.990;2023-08-12T00:40:23;27.30;48.50
12769;DHT22;6448;48.916;8.990;2023-08-12T00:41:24;27.20;48.50
12769;DHT22;6448;48.916;8.990;2023-08-12T00:42:26;27.20;48.50
12769;DHT22;6448;48.916;8.990;2023-08-12T00:43:27;27.30;48.50
12769;DHT22;6448;48.916;8.990;2023-08-12T00:44:29;27.20;48.50
12769;DHT22;6448;48.916;8.990;2023-08-12T00:45:30;27.20;48.50
12769;DHT22;6448;48.916;8.990;2023-08-12T00:46:32;27.20;48.50
12769;DHT22;6448;48.916;8.990;2023-08-12T00:47:34;27.20;48.50
12769;DHT22;6448;48.916;8.990;2023-08-12T00:48:36;27.20;48.50
12769;DHT22;6448;48.916;8.990;2023-08-12T00:49:40;27.20;48.60
12769;DHT22;6448;48.916;8.990;2023-08-12T00:50:46;27.20;48.60
12769;DHT22;6448;48.916;8.990;2023-08-12T00:51:50;27.10;48.50
12769;DHT22;6448;48.916;8.990;2023-08-12T00:52:54;27.10;48.50
12769;DHT22;6448;48.916;8.990;2023-08-12T00:53:56;27.10;48.60
12769;DHT22;6448;48.916;8.990;2023-08-12T00:54:58;27.10;48.50
12769;DHT22;6448;48.916;8.990;2023-08-12T00:56:00;27.10;48.60
12769;DHT22;6448;48.916;8.990;2023-08-12T00:57:01;27.10;48.60
12769;DHT22;6448;48.916;8.990;2023-08-12T00:58:03;27.10;48.50
12769;DHT22;6448;48.916;8.990;2023-08-12T00:59:05;27.10;48.60
12769;DHT22;6448;48.916;8.990;2023-08-12T01:00:10;27.10;48.70
12769;DHT22;6448;48.916;8.990;2023-08-12T01:01:11;27.10;48.80
12769;DHT22;6448;48.916;8.990;2023-08-12T01:02:13;27.00;48.80
12769;DHT22;6448;48.916;8.990;2023-08-12T01:03:14;27.00;48.90
12769;DHT22;6448;48.916;8.990;2023-08-12T01:04:17;27.00;48.80
12769;DHT22;6448;48.916;8.990;2023-08-12T01:05:19;27.00;48.80
12769;DHT22;6448;48.916;8.990;2023-08-12T01:06:21;27.00;48.90
12769;DHT22;6448;48.916;8.990;2023-08-12T01:07:22;27.00;49.00
12769;DHT22;6448;48.916;8.990;2023-08-12T01:08:28;26.90;48.90
12769;DHT22;6448;48.916;8.990;2023-08-12T01:09:30;26.90;49.30
12769;DHT22;6448;48.916;8.990;2023-08-12T01:10:35;26.90;49.00
12769;DHT22;6448;48.916;8.990;2023-08-12T01:11:42;26.90;49.00
12769;DHT22;6448;48.916;8.990;2023-08-12T01:12:50;26.90;49.10
12769;DHT22;6448;48.916;8.990;2023-08-12T01:13:58;26.80;49.10
12769;DHT22;6448;48.916;8.990;2023-08-12T01:15:06;26.80;49.10
12769;DHT22;6448;48.916;8.990;2023-08-12T01:16:08;26.80;49.30
12769;DHT22;6448;48.916;8.990;2023-08-12T01:17:11;26.80;49.30
12769;DHT22;6448;48.916;8.990;2023-08-12T01:18:14;26.80;49.40
12769;DHT22;6448;48.916;8.990;2023-08-12T01:19:30;26.80;49.40
12769;DHT22;6448;48.916;8.990;2023-08-12T01:20:34;26.80;49.50
12769;DHT22;6448;48.916;8.990;2023-08-12T01:21:36;26.80;49.60
12769;DHT22;6448;48.916;8.990;2023-08-12T01:22:44;26.70;49.60
12769;DHT22;6448;48.916;8.990;2023-08-12T01:23:48;26.70;49.60
12769;DHT22;6448;48.916;8.990;2023-08-12T01:24:49;26.70;49.60
12769;DHT22;6448;48.916;8.990;2023-08-12T01:25:52;26.70;49.70
12769;DHT22;6448;48.916;8.990;2023-08-12T01:26:55;26.70;49.70
12769;DHT22;6448;48.916;8.990;2023-08-12T01:27:57;26.70;49.70
12769;DHT22;6448;48.916;8.990;2023-08-12T01:28:57;26.70;49.80
12769;DHT22;6448;48.916;8.990;2023-08-12T01:29:59;26.70;49.80
12769;DHT22;6448;48.916;8.990;2023-08-12T01:31:06;26.70;49.80
12769;DHT22;6448;48.916;8.990;2023-08-12T01:32:17;26.60;49.80
12769;DHT22;6448;48.916;8.990;2023-08-12T01:33:26;26.60;49.80
12769;DHT22;6448;48.916;8.990;2023-08-12T01:34:40;26.60;49.80
12769;DHT22;6448;48.916;8.990;2023-08-12T01:35:47;26.60;49.80
12769;DHT22;6448;48.916;8.990;2023-08-12T01:36:55;26.60;49.80
12769;DHT22;6448;48.916;8.990;2023-08-12T01:37:58;26.60;49.80
12769;DHT22;6448;48.916;8.990;2023-08-12T01:39:02;26.60;49.80
12769;DHT22;6448;48.916;8.990;2023-08-12T01:40:07;26.60;49.80
12769;DHT22;6448;48.916;8.990;2023-08-12T01:41:11;26.60;49.80
12769;DHT22;6448;48.916;8.990;2023-08-12T01:42:13;26.60;49.90
12769;DHT22;6448;48.916;8.990;2023-08-12T01:43:15;26.60;49.90
12769;DHT22;6448;48.916;8.990;2023-08-12T01:44:17;26.60;49.80
12769;DHT22;6448;48.916;8.990;2023-08-12T01:45:19;26.60;49.80
12769;DHT22;6448;48.916;8.990;2023-08-12T01:46:21;26.60;49.80
12769;DHT22;6448;48.916;8.990;2023-08-12T01:47:23;26.60;49.90
12769;DHT22;6448;48.916;8.990;2023-08-12T01:48:24;26.60;49.90
12769;DHT22;6448;48.916;8.990;2023-08-12T01:49:25;26.50;49.80
12769;DHT22;6448;48.916;8.990;2023-08-12T01:50:26;26.50;49.80
12769;DHT22;6448;48.916;8.990;2023-08-12T01:51:29;26.50;49.80
12769;DHT22;6448;48.916;8.990;2023-08-12T01:52:31;26.60;50.00
12769;DHT22;6448;48.916;8.990;2023-08-12T01:53:32;26.50;49.90
12769;DHT22;6448;48.916;8.990;2023-08-12T01:54:35;26.50;50.00
12769;DHT22;6448;48.916;8.990;2023-08-12T01:55:36;26.50;50.00
12769;DHT22;6448;48.916;8.990;2023-08-12T01:56:39;26.50;50.00
12769;DHT22;6448;48.916;8.990;2023-08-12T01:57:40;26.50;50.00
12769;DHT22;6448;48.916;8.990;2023-08-12T01:58:42;26.50;50.10
12769;DHT22;6448;48.916;8.990;2023-08-12T01:59:43;26.50;50.10
12769;DHT22;6448;48.916;8.990;2023-08-12T02:00:45;26.50;50.10
12769;DHT22;6448;48.916;8.990;2023-08-12T02:01:46;26.50;50.20
12769;DHT22;6448;48.916;8.990;2023-08-12T02:02:47;26.50;50.20
12769;DHT22;6448;48.916;8.990;2023-08-12T02:03:48;26.50;50.20
12769;DHT22;6448;48.916;8.990;2023-08-12T02:04:50;26.50;50.30
12769;DHT22;6448;48.916;8.990;2023-08-12T02:05:51;26.40;50.20
12769;DHT22;6448;48.916;8.990;2023-08-12T02:06:52;26.40;50.20
12769;DHT22;6448;48.916;8.990;2023-08-12T02:07:54;26.40;50.30
12769;DHT22;6448;48.916;8.990;2023-08-12T02:08:56;26.50;50.40
12769;DHT22;6448;48.916;8.990;2023-08-12T02:09:58;26.40;50.40
12769;DHT22;6448;48.916;8.990;2023-08-12T02:11:00;26.40;50.40
12769;DHT22;6448;48.916;8.990;2023-08-12T02:12:01;26.40;50.50
12769;DHT22;6448;48.916;8.990;2023-08-12T02:13:03;26.40;50.60
12769;DHT22;6448;48.916;8.990;2023-08-12T02:14:04;26.40;50.60
12769;DHT22;6448;48.916;8.990;2023-08-12T02:15:06;26.40;50.70
12769;DHT22;6448;48.916;8.990;2023-08-12T02:16:08;26.40;50.60
12769;DHT22;6448;48.916;8.990;2023-08-12T02:17:09;26.40;50.70
12769;DHT22;6448;48.916;8.990;2023-08-12T02:18:10;26.40;50.70
12769;DHT22;6448;48.916;8.990;2023-08-12T02:19:11;26.40;50.80
12769;DHT22;6448;48.916;8.990;2023-08-12T02:20:13;26.40;50.90
12769;DHT22;6448;48.916;8.990;2023-08-12T02:21:14;26.40;51.00
12769;DHT22;6448;48.916;8.990;2023-08-12T02:22:15;26.40;51.00
12769;DHT22;6448;48.916;8.990;2023-08-12T02:23:16;26.40;51.00
12769;DHT22;6448;48.916;8.990;2023-08-12T02:24:17;26.40;51.00
12769;DHT22;6448;48.916;8.990;2023-08-12T02:25:20;26.40;51.00
12769;DHT22;6448;48.916;8.990;2023-08-12T02:26:21;26.30;50.90
12769;DHT22;6448;48.916;8.990;2023-08-12T02:27:22;26.30;51.00
12769;DHT22;6448;48.916;8.990;2023-08-12T02:28:23;26.30;51.00
12769;DHT22;6448;48.916;8.990;2023-08-12T02:29:26;26.40;51.00
12769;DHT22;6448;48.916;8.990;2023-08-12T02:30:29;26.30;51.10
12769;DHT22;6448;48.916;8.990;2023-08-12T02:31:31;26.30;51.10
12769;DHT22;6448;48.916;8.990;2023-08-12T02:32:31;26.30;51.10
12769;DHT22;6448;48.916;8.990;2023-08-12T02:33:33;26.30;51.20
12769;DHT22;6448;48.916;8.990;2023-08-12T02:34:34;26.50;51.40
12769;DHT22;6448;48.916;8.990;2023-08-12T02:35:36;26.30;51.30
12769;DHT22;6448;48.916;8.990;2023-08-12T02:36:38;26.30;51.30
12769;DHT22;6448;48.916;8.990;2023-08-12T02:37:40;26.30;51.30
12769;DHT22;6448;48.916;8.990;2023-08-12T02:38:41;26.30;51.40
12769;DHT22;6448;48.916;8.990;2023-08-12T02:39:43;26.30;51.50
12769;DHT22;6448;48.916;8.990;2023-08-12T02:40:47;26.30;51.40
12769;DHT22;6448;48.916;8.990;2023-08-12T02:41:49;26.30;51.40
12769;DHT22;6448;48.916;8.990;2023-08-12T02:42:50;26.20;51.30
12769;DHT22;6448;48.916;8.990;2023-08-12T02:43:53;26.30;51.30
12769;DHT22;6448;48.916;8.990;2023-08-12T02:44:53;26.30;51.30
12769;DHT22;6448;48.916;8.990;2023-08-12T02:45:56;26.30;51.40
12769;DHT22;6448;48.916;8.990;2023-08-12T02:46:57;26.20;51.30
12769;DHT22;6448;48.916;8.990;2023-08-12T02:47:59;26.20;51.40
12769;DHT22;6448;48.916;8.990;2023-08-12T02:48:59;26.20;51.50
12769;DHT22;6448;48.916;8.990;2023-08-12T02:50:01;26.20;51.50
12769;DHT22;6448;48.916;8.990;2023-08-12T02:51:03;26.20;51.50
12769;DHT22;6448;48.916;8.990;2023-08-12T02:52:05;26.20;51.60
12769;DHT22;6448;48.916;8.990;2023-08-12T02:53:07;26.20;51.60
12769;DHT22;6448;48.916;8.990;2023-08-12T02:54:09;26.20;51.70
12769;DHT22;6448;48.916;8.990;2023-08-12T02:55:09;26.20;51.70
12769;DHT22;6448;48.916;8.990;2023-08-12T02:56:13;26.20;51.80
12769;DHT22;6448;48.916;8.990;2023-08-12T02:57:14;26.20;51.80
12769;DHT22;6448;48.916;8.990;2023-08-12T02:58:15;26.20;51.80
12769;DHT22;6448;48.916;8.990;2023-08-12T02:59:16;26.20;51.80
12769;DHT22;6448;48.916;8.990;2023-08-12T03:00:17;26.20;51.90
12769;DHT22;6448;48.916;8.990;2023-08-12T03:01:20;26.20;52.50
12769;DHT22;6448;48.916;8.990;2023-08-12T03:02:21;26.20;51.90
12769;DHT22;6448;48.916;8.990;2023-08-12T03:03:23;26.20;51.90
12769;DHT22;6448;48.916;8.990;2023-08-12T03:04:24;26.20;51.90
12769;DHT22;6448;48.916;8.990;2023-08-12T03:05:26;26.20;51.90
12769;DHT22;6448;48.916;8.990;2023-08-12T03:06:26;26.20;51.90
12769;DHT22;6448;48.916;8.990;2023-08-12T03:07:28;26.20;51.80
12769;DHT22;6448;48.916;8.990;2023-08-12T03:08:29;26.20;51.80
12769;DHT22;6448;48.916;8.990;2023-08-12T03:09:31;26.20;51.80
12769;DHT22;6448;48.916;8.990;2023-08-12T03:10:33;26.20;51.90
12769;DHT22;6448;48.916;8.990;2023-08-12T03:11:37;26.20;51.90
12769;DHT22;6448;48.916;8.990;2023-08-12T03:12:40;26.10;51.80
12769;DHT22;6448;48.916;8.990;2023-08-12T03:13:42;26.20;51.80
12769;DHT22;6448;48.916;8.990;2023-08-12T03:14:43;26.20;51.80
12769;DHT22;6448;48.916;8.990;2023-08-12T03:15:46;26.20;51.80
12769;DHT22;6448;48.916;8.990;2023-08-12T03:16:47;26.20;51.90
12769;DHT22;6448;48.916;8.990;2023-08-12T03:17:49;26.10;51.90
12769;DHT22;6448;48.916;8.990;2023-08-12T03:18:51;26.20;52.00
12769;DHT22;6448;48.916;8.990;2023-08-12T03:19:53;26.20;52.00
12769;DHT22;6448;48.916;8.990;2023-08-12T03:20:55;26.20;52.10
12769;DHT22;6448;48.916;8.990;2023-08-12T03:21:59;26.10;52.00
12769;DHT22;6448;48.916;8.990;2023-08-12T03:22:59;26.10;52.00
12769;DHT22;6448;48.916;8.990;2023-08-12T03:24:01;26.20;52.30
12769;DHT22;6448;48.916;8.990;2023-08-12T03:25:05;26.10;52.30
12769;DHT22;6448;48.916;8.990;2023-08-12T03:26:07;26.10;52.20
12769;DHT22;6448;48.916;8.990;2023-08-12T03:27:10;26.10;52.20
12769;DHT22;6448;48.916;8.990;2023-08-12T03:28:12;26.10;52.10
12769;DHT22;6448;48.916;8.990;2023-08-12T03:29:13;26.10;52.10
12769;DHT22;6448;48.916;8.990;2023-08-12T03:30:17;26.10;52.10
12769;DHT22;6448;48.916;8.990;2023-08-12T03:31:18;26.10;52.10
12769;DHT22;6448;48.916;8.990;2023-08-12T03:32:20;26.10;52.10
12769;DHT22;6448;48.916;8.990;2023-08-12T03:33:21;26.10;52.10
12769;DHT22;6448;48.916;8.990;2023-08-12T03:34:23;26.10;52.20
12769;DHT22;6448;48.916;8.990;2023-08-12T03:35:24;26.10;52.20
12769;DHT22;6448;48.916;8.990;2023-08-12T03:36:25;26.10;52.20
12769;DHT22;6448;48.916;8.990;2023-08-12T03:37:26;26.10;52.30
12769;DHT22;6448;48.916;8.990;2023-08-12T03:38:28;26.10;52.30
12769;DHT22;6448;48.916;8.990;2023-08-12T03:39:30;26.00;52.30
12769;DHT22;6448;48.916;8.990;2023-08-12T03:40:37;26.00;52.30
12769;DHT22;6448;48.916;8.990;2023-08-12T03:41:38;25.90;52.30
12769;DHT22;6448;48.916;8.990;2023-08-12T03:42:42;25.90;52.30
12769;DHT22;6448;48.916;8.990;2023-08-12T03:43:44;26.00;52.40
12769;DHT22;6448;48.916;8.990;2023-08-12T03:44:45;25.90;52.50
12769;DHT22;6448;48.916;8.990;2023-08-12T03:45:47;25.90;52.50
12769;DHT22;6448;48.916;8.990;2023-08-12T03:46:50;25.90;52.60
12769;DHT22;6448;48.916;8.990;2023-08-12T03:47:51;25.80;52.50
12769;DHT22;6448;48.916;8.990;2023-08-12T03:48:53;25.80;52.50
12769;DHT22;6448;48.916;8.990;2023-08-12T03:49:54;25.80;52.60
12769;DHT22;6448;48.916;8.990;2023-08-12T03:50:56;25.80;52.60
12769;DHT22;6448;48.916;8.990;2023-08-12T03:51:57;25.80;52.80
12769;DHT22;6448;48.916;8.990;2023-08-12T03:53:00;25.80;52.80
12769;DHT22;6448;48.916;8.990;2023-08-12T03:54:01;25.80;52.80
12769;DHT22;6448;48.916;8.990;2023-08-12T03:55:03;25.80;52.90
12769;DHT22;6448;48.916;8.990;2023-08-12T03:56:04;25.80;53.10
12769;DHT22;6448;48.916;8.990;2023-08-12T03:57:07;25.80;53.70
12769;DHT22;6448;48.916;8.990;2023-08-12T03:58:09;25.80;53.20
12769;DHT22;6448;48.916;8.990;2023-08-12T03:59:12;25.80;53.20
12769;DHT22;6448;48.916;8.990;2023-08-12T04:00:13;25.80;53.20
12769;DHT22;6448;48.916;8.990;2023-08-12T04:01:16;25.80;53.20
12769;DHT22;6448;48.916;8.990;2023-08-12T04:02:18;25.90;53.30
12769;DHT22;6448;48.916;8.990;2023-08-12T04:03:19;25.80;53.20
12769;DHT22;6448;48.916;8.990;2023-08-12T04:04:21;25.80;53.30
12769;DHT22;6448;48.916;8.990;2023-08-12T04:05:22;25.80;53.30
12769;DHT22;6448;48.916;8.990;2023-08-12T04:06:24;25.80;53.40
12769;DHT22;6448;48.916;8.990;2023-08-12T04:07:25;25.80;53.40
12769;DHT22;6448;48.916;8.990;2023-08-12T04:08:27;25.80;53.30
12769;DHT22;6448;48.916;8.990;2023-08-12T04:09:28;25.70;53.30
12769;DHT22;6448;48.916;8.990;2023-08-12T04:10:30;25.80;53.30
12769;DHT22;6448;48.916;8.990;2023-08-12T04:11:31;25.80;53.20
12769;DHT22;6448;48.916;8.990;2023-08-12T04:12:33;25.80;53.30
12769;DHT22;6448;48.916;8.990;2023-08-12T04:13:35;25.80;53.30
12769;DHT22;6448;48.916;8.990;2023-08-12T04:14:37;25.80;53.30
12769;DHT22;6448;48.916;8.990;2023-08-12T04:15:37;25.80;53.40
12769;DHT22;6448;48.916;8.990;2023-08-12T04:16:39;25.80;53.40
12769;DHT22;6448;48.916;8.990;2023-08-12T04:17:40;25.80;53.40
12769;DHT22;6448;48.916;8.990;2023-08-12T04:18:42;25.70;53.40
12769;DHT22;6448;48.916;8.990;2023-08-12T04:19:44;25.80;53.50
12769;DHT22;6448;48.916;8.990;2023-08-12T04:20:45;25.80;53.50
12769;DHT22;6448;48.916;8.990;2023-08-12T04:21:47;25.80;53.50
12769;DHT22;6448;48.916;8.990;2023-08-12T04:22:48;25.80;53.50
12769;DHT22;6448;48.916;8.990;2023-08-12T04:23:49;25.80;53.50
12769;DHT22;6448;48.916;8.990;2023-08-12T04:24:51;25.80;53.50
12769;DHT22;6448;48.916;8.990;2023-08-12T04:25:53;25.80;53.40
12769;DHT22;6448;48.916;8.990;2023-08-12T04:26:58;25.80;53.50
12769;DHT22;6448;48.916;8.990;2023-08-12T04:28:00;25.80;53.50
12769;DHT22;6448;48.916;8.990;2023-08-12T04:29:04;25.80;53.30
12769;DHT22;6448;48.916;8.990;2023-08-12T04:30:07;25.90;53.40
12769;DHT22;6448;48.916;8.990;2023-08-12T04:31:08;25.80;53.40
12769;DHT22;6448;48.916;8.990;2023-08-12T04:32:11;25.80;53.40
12769;DHT22;6448;48.916;8.990;2023-08-12T04:33:14;25.80;53.40
12769;DHT22;6448;48.916;8.990;2023-08-12T04:34:15;25.80;53.40
12769;DHT22;6448;48.916;8.990;2023-08-12T04:35:16;25.80;53.40
12769;DHT22;6448;48.916;8.990;2023-08-12T04:36:18;25.80;53.30
12769;DHT22;6448;48.916;8.990;2023-08-12T04:37:20;25.80;53.30
12769;DHT22;6448;48.916;8.990;2023-08-12T04:38:20;25.80;53.30
12769;DHT22;6448;48.916;8.990;2023-08-12T04:39:24;25.80;53.40
12769;DHT22;6448;48.916;8.990;2023-08-12T04:40:26;25.80;53.50
12769;DHT22;6448;48.916;8.990;2023-08-12T04:41:28;25.80;53.60
12769;DHT22;6448;48.916;8.990;2023-08-12T04:42:29;25.80;53.50
12769;DHT22;6448;48.916;8.990;2023-08-12T04:43:32;25.90;53.50
12769;DHT22;6448;48.916;8.990;2023-08-12T04:44:34;25.80;53.40
12769;DHT22;6448;48.916;8.990;2023-08-12T04:45:36;25.80;53.50
12769;DHT22;6448;48.916;8.990;2023-08-12T04:46:39;25.80;53.50
12769;DHT22;6448;48.916;8.990;2023-08-12T04:47:42;25.90;53.50
12769;DHT22;6448;48.916;8.990;2023-08-12T04:48:44;25.80;53.50
12769;DHT22;6448;48.916;8.990;2023-08-12T04:49:46;25.80;53.50
12769;DHT22;6448;48.916;8.990;2023-08-12T04:50:47;25.80;53.60
12769;DHT22;6448;48.916;8.990;2023-08-12T04:51:52;25.80;53.70
12769;DHT22;6448;48.916;8.990;2023-08-12T04:52:53;25.80;53.60
12769;DHT22;6448;48.916;8.990;2023-08-12T04:53:55;25.80;53.70
12769;DHT22;6448;48.916;8.990;2023-08-12T04:54:56;25.80;53.70
12769;DHT22;6448;48.916;8.990;2023-08-12T04:55:59;25.90;53.70
12769;DHT22;6448;48.916;8.990;2023-08-12T04:57:01;25.80;53.70
12769;DHT22;6448;48.916;8.990;2023-08-12T04:58:02;25.80;53.70
12769;DHT22;6448;48.916;8.990;2023-08-12T04:59:05;25.80;53.60
12769;DHT22;6448;48.916;8.990;2023-08-12T05:00:08;25.80;53.60
12769;DHT22;6448;48.916;8.990;2023-08-12T05:01:10;25.80;53.60
12769;DHT22;6448;48.916;8.990;2023-08-12T05:02:11;25.80;53.60
12769;DHT22;6448;48.916;8.990;2023-08-12T05:03:14;25.90;53.80
12769;DHT22;6448;48.916;8.990;2023-08-12T05:04:15;25.80;54.00
12769;DHT22;6448;48.916;8.990;2023-08-12T05:05:16;25.80;54.00
12769;DHT22;6448;48.916;8.990;2023-08-12T05:06:17;25.90;54.10
12769;DHT22;6448;48.916;8.990;2023-08-12T05:07:20;25.80;54.20
12769;DHT22;6448;48.916;8.990;2023-08-12T05:08:21;25.80;54.30
12769;DHT22;6448;48.916;8.990;2023-08-12T05:09:23;25.80;54.40
12769;DHT22;6448;48.916;8.990;2023-08-12T05:10:23;25.90;54.50
12769;DHT22;6448;48.916;8.990;2023-08-12T05:11:26;25.80;54.40
12769;DHT22;6448;48.916;8.990;2023-08-12T05:12:26;25.90;54.70
12769;DHT22;6448;48.916;8.990;2023-08-12T05:13:28;25.80;54.60
12769;DHT22;6448;48.916;8.990;2023-08-12T05:14:30;25.80;54.60
12769;DHT22;6448;48.916;8.990;2023-08-12T05:15:33;25.90;54.80
12769;DHT22;6448;48.916;8.990;2023-08-12T05:16:34;25.80;54.70
12769;DHT22;6448;48.916;8.990;2023-08-12T05:17:35;25.80;54.60
12769;DHT22;6448;48.916;8.990;2023-08-12T05:18:36;25.80;54.70
12769;DHT22;6448;48.916;8.990;2023-08-12T05:19:38;25.80;54.70
12769;DHT22;6448;48.916;8.990;2023-08-12T05:20:39;25.90;54.80
12769;DHT22;6448;48.916;8.990;2023-08-12T05:21:42;25.80;54.80
12769;DHT22;6448;48.916;8.990;2023-08-12T05:22:42;25.80;54.80
12769;DHT22;6448;48.916;8.990;2023-08-12T05:23:44;25.90;54.90
12769;DHT22;6448;48.916;8.990;2023-08-12T05:24:46;25.80;54.90
12769;DHT22;6448;48.916;8.990;2023-08-12T05:25:47;25.80;54.90
12769;DHT22;6448;48.916;8.990;2023-08-12T05:26:48;25.80;54.90
12769;DHT22;6448;48.916;8.990;2023-08-12T05:27:50;25.80;54.90
12769;DHT22;6448;48.916;8.990;2023-08-12T05:28:50;25.80;54.90
12769;DHT22;6448;48.916;8.990;2023-08-12T05:29:52;25.80;55.00
12769;DHT22;6448;48.916;8.990;2023-08-12T05:30:54;25.90;55.30
12769;DHT22;6448;48.916;8.990;2023-08-12T05:31:56;25.80;55.30
12769;DHT22;6448;48.916;8.990;2023-08-12T05:32:57;25.80;55.60
12769;DHT22;6448;48.916;8.990;2023-08-12T05:33:59;25.80;55.60
12769;DHT22;6448;48.916;8.990;2023-08-12T05:35:00;25.80;55.70
12769;DHT22;6448;48.916;8.990;2023-08-12T05:36:02;25.80;55.70
12769;DHT22;6448;48.916;8.990;2023-08-12T05:37:03;25.80;55.60
12769;DHT22;6448;48.916;8.990;2023-08-12T05:38:05;25.80;55.60
12769;DHT22;6448;48.916;8.990;2023-08-12T05:39:06;25.90;55.70
12769;DHT22;6448;48.916;8.990;2023-08-12T05:40:09;25.90;55.60
12769;DHT22;6448;48.916;8.990;2023-08-12T05:41:10;25.80;55.60
12769;DHT22;6448;48.916;8.990;2023-08-12T05:42:12;25.80;55.60
12769;DHT22;6448;48.916;8.990;2023-08-12T05:43:12;25.80;55.70
12769;DHT22;6448;48.916;8.990;2023-08-12T05:44:14;25.80;55.80
12769;DHT22;6448;48.916;8.990;2023-08-12T05:45:15;25.80;55.70
12769;DHT22;6448;48.916;8.990;2023-08-12T05:46:18;25.80;55.80
12769;DHT22;6448;48.916;8.990;2023-08-12T05:47:19;25.80;55.80
12769;DHT22;6448;48.916;8.990;2023-08-12T05:48:21;25.80;55.70
12769;DHT22;6448;48.916;8.990;2023-08-12T05:49:21;25.80;55.70
12769;DHT22;6448;48.916;8.990;2023-08-12T05:50:23;25.80;55.60
12769;DHT22;6448;48.916;8.990;2023-08-12T05:51:24;25.80;56.30
12769;DHT22;6448;48.916;8.990;2023-08-12T05:52:26;25.80;56.40
12769;DHT22;6448;48.916;8.990;2023-08-12T05:53:27;25.80;55.80
12769;DHT22;6448;48.916;8.990;2023-08-12T05:54:29;25.90;55.80
12769;DHT22;6448;48.916;8.990;2023-08-12T05:55:29;25.80;55.80
12769;DHT22;6448;48.916;8.990;2023-08-12T05:56:31;25.60;55.70
12769;DHT22;6448;48.916;8.990;2023-08-12T05:57:32;25.80;56.30
12769;DHT22;6448;48.916;8.990;2023-08-12T05:58:33;25.80;56.30
12769;DHT22;6448;48.916;8.990;2023-08-12T05:59:34;25.90;56.50
12769;DHT22;6448;48.916;8.990;2023-08-12T06:00:36;25.90;56.60
12769;DHT22;6448;48.916;8.990;2023-08-12T06:01:38;25.80;56.70
12769;DHT22;6448;48.916;8.990;2023-08-12T06:02:40;25.90;56.80
12769;DHT22;6448;48.916;8.990;2023-08-12T06:03:40;25.80;56.70
12769;DHT22;6448;48.916;8.990;2023-08-12T06:04:43;25.80;56.60
12769;DHT22;6448;48.916;8.990;2023-08-12T06:05:46;25.80;56.50
12769;DHT22;6448;48.916;8.990;2023-08-12T06:06:48;25.90;56.70
12769;DHT22;6448;48.916;8.990;2023-08-12T06:07:48;25.80;56.70
12769;DHT22;6448;48.916;8.990;2023-08-12T06:08:50;25.80;56.80
12769;DHT22;6448;48.916;8.990;2023-08-12T06:09:51;25.80;56.80
12769;DHT22;6448;48.916;8.990;2023-08-12T06:10:52;25.80;57.00
12769;DHT22;6448;48.916;8.990;2023-08-12T06:11:53;25.80;57.20
12769;DHT22;6448;48.916;8.990;2023-08-12T06:12:54;25.80;57.30
12769;DHT22;6448;48.916;8.990;2023-08-12T06:13:56;25.80;57.20
12769;DHT22;6448;48.916;8.990;2023-08-12T06:14:57;25.80;57.00
12769;DHT22;6448;48.916;8.990;2023-08-12T06:15:58;25.90;57.00
12769;DHT22;6448;48.916;8.990;2023-08-12T06:17:00;25.90;57.10
12769;DHT22;6448;48.916;8.990;2023-08-12T06:18:03;25.80;56.90
12769;DHT22;6448;48.916;8.990;2023-08-12T06:19:04;25.90;56.90
12769;DHT22;6448;48.916;8.990;2023-08-12T06:20:06;25.80;56.80
12769;DHT22;6448;48.916;8.990;2023-08-12T06:21:07;25.90;57.10
12769;DHT22;6448;48.916;8.990;2023-08-12T06:22:09;25.90;57.30
12769;DHT22;6448;48.916;8.990;2023-08-12T06:23:10;25.90;57.30
12769;DHT22;6448;48.916;8.990;2023-08-12T06:24:12;25.90;57.40
12769;DHT22;6448;48.916;8.990;2023-08-12T06:25:12;25.90;57.30
12769;DHT22;6448;48.916;8.990;2023-08-12T06:26:14;25.90;57.10
12769;DHT22;6448;48.916;8.990;2023-08-12T06:27:15;25.90;57.00
12769;DHT22;6448;48.916;8.990;2023-08-12T06:28:17;25.90;57.30
12769;DHT22;6448;48.916;8.990;2023-08-12T06:29:17;25.90;57.30
12769;DHT22;6448;48.916;8.990;2023-08-12T06:30:19;25.90;57.30
12769;DHT22;6448;48.916;8.990;2023-08-12T06:31:20;25.90;57.20
12769;DHT22;6448;48.916;8.990;2023-08-12T06:32:23;25.90;57.10
12769;DHT22;6448;48.916;8.990;2023-08-12T06:33:24;26.00;57.10
12769;DHT22;6448;48.916;8.990;2023-08-12T06:34:26;25.90;57.10
12769;DHT22;6448;48.916;8.990;2023-08-12T06:35:26;25.90;56.90
12769;DHT22;6448;48.916;8.990;2023-08-12T06:36:28;25.90;56.90
12769;DHT22;6448;48.916;8.990;2023-08-12T06:37:29;25.90;57.00